sensor_id;sensor_type;location;lat;lon;timestamp;pressure;altitude;pressure_sealevel;temperature;humidity
27958;BME280;15295;42.658;23.374;2023-02-28T00:01:51;95037.88;;;11.40;60.34
27958;BME280;15295;42.658;23.374;2023-02-28T00:04:27;94994.88;;;11.16;60.14
27958;BME280;15295;42.658;23.374;2023-02-28T00:06:57;94996.06;;;11.05;60.62
27958;BME280;15295;42.658;23.374;2023-02-28T00:09:33;95044.91;;;11.38;60.88
27958;BME280;15295;42.658;23.374;2023-02-28T00:12:23;94998.03;;;11.01;61.29
27958;BME280;15295;42.658;23.374;2023-02-28T00:14:56;95037.91;;;11.44;60.66
27958;BME280;15295;42.658;23.374;2023-02-28T00:17:52;95005.81;;;11.13;60.68
27958;BME280;15295;42.658;23.374;2023-02-28T00:20:35;94981.59;;;10.90;61.30
27958;BME280;15295;42.658;23.374;2023-02-28T00:23:34;95017.56;;;11.20;61.53
27958;BME280;15295;42.658;23.374;2023-02-28T00:26:04;95013.25;;;11.02;61.72
27958;BME280;15295;42.658;23.374;2023-02-28T00:29:04;95033.59;;;11.36;61.50
27958;BME280;15295;42.658;23.374;2023-02-28T00:31:59;94980.81;;;11.11;61.35
27958;BME280;15295;42.658;23.374;2023-02-28T00:34:46;95046.09;;;11.51;61.41
27958;BME280;15295;42.658;23.374;2023-02-28T00:37:16;95050.81;;;11.75;61.02
27958;BME280;15295;42.658;23.374;2023-02-28T00:39:43;94994.91;;;11.37;60.94
27958;BME280;15295;42.658;23.374;2023-02-28T00:42:09;95014.41;;;11.57;60.77
27958;BME280;15295;42.658;23.374;2023-02-28T00:44:37;95015.22;;;11.75;60.64
27958;BME280;15295;42.658;23.374;2023-02-28T00:47:04;95007.38;;;11.84;60.39
27958;BME280;15295;42.658;23.374;2023-02-28T00:49:32;94965.94;;;11.61;60.11
27958;BME280;15295;42.658;23.374;2023-02-28T00:52:01;94958.13;;;11.52;60.17
27958;BME280;15295;42.658;23.374;2023-02-28T00:54:31;94984.31;;;11.78;59.77
27958;BME280;15295;42.658;23.374;2023-02-28T00:57:01;95029.22;;;12.16;59.51
27958;BME280;15295;42.658;23.374;2023-02-28T00:59:30;95003.84;;;11.87;59.33
27958;BME280;15295;42.658;23.374;2023-02-28T01:02:12;95031.19;;;12.05;59.24
27958;BME280;15295;42.658;23.374;2023-02-28T01:04:47;94976.91;;;11.72;58.94
27958;BME280;15295;42.658;23.374;2023-02-28T01:07:22;94979.22;;;11.73;58.67
27958;BME280;15295;42.658;23.374;2023-02-28T01:09:51;95020.69;;;11.82;58.48
27958;BME280;15295;42.658;23.374;2023-02-28T01:12:22;95005.03;;;11.79;58.95
27958;BME280;15295;42.658;23.374;2023-02-28T01:15:23;95008.16;;;11.81;58.94
27958;BME280;15295;42.658;23.374;2023-02-28T01:17:50;95008.91;;;11.92;58.76
27958;BME280;15295;42.658;23.374;2023-02-28T01:20:16;94963.59;;;11.70;58.62
27958;BME280;15295;42.658;23.374;2023-02-28T01:22:46;94972.94;;;11.76;58.40
27958;BME280;15295;42.658;23.374;2023-02-28T01:25:25;94977.63;;;11.83;58.13
27958;BME280;15295;42.658;23.374;2023-02-28T01:27:55;95009.28;;;12.05;57.71
27958;BME280;15295;42.658;23.374;2023-02-28T01:30:25;95031.56;;;12.14;57.98
27958;BME280;15295;42.658;23.374;2023-02-28T01:32:51;95017.09;;;12.06;58.11
27958;BME280;15295;42.658;23.374;2023-02-28T01:35:26;94967.47;;;11.83;58.07
27958;BME280;15295;42.658;23.374;2023-02-28T01:38:05;95005.31;;;12.13;57.71
27958;BME280;15295;42.658;23.374;2023-02-28T01:40:32;95017.84;;;12.21;57.77
27958;BME280;15295;42.658;23.374;2023-02-28T01:43:28;95041.66;;;12.34;57.45
27958;BME280;15295;42.658;23.374;2023-02-28T01:45:58;95030.72;;;12.27;57.17
27958;BME280;15295;42.658;23.374;2023-02-28T01:48:32;95015.91;;;12.14;57.31
27958;BME280;15295;42.658;23.374;2023-02-28T01:51:29;95043.28;;;12.21;57.44
27958;BME280;15295;42.658;23.374;2023-02-28T01:54:10;95006.53;;;11.98;57.57
27958;BME280;15295;42.658;23.374;2023-02-28T01:56:51;95024.53;;;12.09;57.36
27958;BME280;15295;42.658;23.374;2023-02-28T01:59:33;95048.00;;;12.21;57.45
27958;BME280;15295;42.658;23.374;2023-02-28T02:02:26;95044.84;;;12.15;57.26
27958;BME280;15295;42.658;23.374;2023-02-28T02:05:10;95044.09;;;12.04;57.19
27958;BME280;15295;42.658;23.374;2023-02-28T02:07:41;95053.50;;;11.96;57.65
27958;BME280;15295;42.658;23.374;2023-02-28T02:10:20;95032.81;;;11.81;57.47
27958;BME280;15295;42.658;23.374;2023-02-28T02:25:24;95043.75;;;11.95;57.99
27958;BME280;15295;42.658;23.374;2023-02-28T02:28:28;94963.22;;;11.43;58.23
27958;BME280;15295;42.658;23.374;2023-02-28T02:45:44;95050.38;;;12.01;58.87
27958;BME280;15295;42.658;23.374;2023-02-28T02:48:27;94992.13;;;11.51;58.83
27958;BME280;15295;42.658;23.374;2023-02-28T02:51:35;95017.53;;;11.77;58.75
27958;BME280;15295;42.658;23.374;2023-02-28T02:54:10;94999.97;;;11.71;58.77
27958;BME280;15295;42.658;23.374;2023-02-28T02:56:47;95001.91;;;11.77;58.72
27958;BME280;15295;42.658;23.374;2023-02-28T02:59:18;94999.19;;;11.70;58.62
27958;BME280;15295;42.658;23.374;2023-02-28T03:02:08;95035.13;;;11.90;58.67
27958;BME280;15295;42.658;23.374;2023-02-28T03:04:45;95026.94;;;11.72;58.61
27958;BME280;15295;42.658;23.374;2023-02-28T03:07:32;95034.41;;;11.72;58.72
27958;BME280;15295;42.658;23.374;2023-02-28T03:10:01;95067.59;;;11.91;58.74
27958;BME280;15295;42.658;23.374;2023-02-28T03:13:23;95014.44;;;11.68;58.49
27958;BME280;15295;42.658;23.374;2023-02-28T03:22:45;95064.84;;;12.02;58.36
27958;BME280;15295;42.658;23.374;2023-02-28T03:25:45;95075.81;;;11.98;58.23
27958;BME280;15295;42.658;23.374;2023-02-28T03:31:37;95032.03;;;11.38;58.01
27958;BME280;15295;42.658;23.374;2023-02-28T03:37:19;95024.59;;;11.25;58.25
27958;BME280;15295;42.658;23.374;2023-02-28T03:40:00;95050.41;;;11.45;58.62
27958;BME280;15295;42.658;23.374;2023-02-28T03:42:44;95078.56;;;11.63;58.50
27958;BME280;15295;42.658;23.374;2023-02-28T03:45:26;95093.41;;;11.65;58.98
27958;BME280;15295;42.658;23.374;2023-02-28T03:48:54;95047.25;;;11.36;58.75
27958;BME280;15295;42.658;23.374;2023-02-28T03:51:24;95071.50;;;11.55;58.73
27958;BME280;15295;42.658;23.374;2023-02-28T03:53:57;95097.38;;;11.72;58.89
27958;BME280;15295;42.658;23.374;2023-02-28T03:56:44;95058.22;;;11.43;59.00
27958;BME280;15295;42.658;23.374;2023-02-28T03:59:28;95060.97;;;11.43;58.87
27958;BME280;15295;42.658;23.374;2023-02-28T04:01:59;95120.81;;;11.76;59.28
27958;BME280;15295;42.658;23.374;2023-02-28T04:04:45;95071.13;;;11.39;59.27
27958;BME280;15295;42.658;23.374;2023-02-28T04:07:14;95100.84;;;11.58;59.27
27958;BME280;15295;42.658;23.374;2023-02-28T04:09:41;95037.88;;;11.23;59.38
27958;BME280;15295;42.658;23.374;2023-02-28T04:12:12;95078.53;;;11.49;59.59
27958;BME280;15295;42.658;23.374;2023-02-28T04:15:05;95100.47;;;11.63;59.40
27958;BME280;15295;42.658;23.374;2023-02-28T04:17:57;95044.16;;;11.30;59.58
27958;BME280;15295;42.658;23.374;2023-02-28T04:20:42;95046.09;;;11.19;59.44
27958;BME280;15295;42.658;23.374;2023-02-28T04:23:25;95069.56;;;11.41;59.56
27958;BME280;15295;42.658;23.374;2023-02-28T04:25:58;95083.63;;;11.47;59.54
27958;BME280;15295;42.658;23.374;2023-02-28T04:28:26;95103.97;;;11.53;59.45
27958;BME280;15295;42.658;23.374;2023-02-28T04:31:06;95052.31;;;11.02;59.64
27958;BME280;15295;42.658;23.374;2023-02-28T04:33:38;95038.63;;;10.88;59.98
27958;BME280;15295;42.658;23.374;2023-02-28T04:42:12;95116.84;;;11.28;60.02
27958;BME280;15295;42.658;23.374;2023-02-28T04:45:12;95082.78;;;10.94;60.18
27958;BME280;15295;42.658;23.374;2023-02-28T04:47:39;95135.19;;;11.24;60.40
27958;BME280;15295;42.658;23.374;2023-02-28T04:50:09;95087.06;;;10.88;60.25
27958;BME280;15295;42.658;23.374;2023-02-28T04:52:36;95071.00;;;10.75;60.46
27958;BME280;15295;42.658;23.374;2023-02-28T04:55:06;95102.69;;;10.94;60.65
27958;BME280;15295;42.658;23.374;2023-02-28T04:57:33;95066.72;;;10.74;60.64
27958;BME280;15295;42.658;23.374;2023-02-28T05:00:04;95062.03;;;10.82;60.61
27958;BME280;15295;42.658;23.374;2023-02-28T05:02:34;95132.44;;;11.17;60.45
27958;BME280;15295;42.658;23.374;2023-02-28T05:05:04;95088.22;;;10.86;60.57
27958;BME280;15295;42.658;23.374;2023-02-28T05:07:29;95060.41;;;10.63;60.26
27958;BME280;15295;42.658;23.374;2023-02-28T05:10:10;95072.94;;;10.68;60.67
27958;BME280;15295;42.658;23.374;2023-02-28T05:12:52;95141.03;;;11.12;60.67
27958;BME280;15295;42.658;23.374;2023-02-28T05:15:18;95098.38;;;10.90;60.55
27958;BME280;15295;42.658;23.374;2023-02-28T05:26:00;95134.38;;;11.16;60.46
27958;BME280;15295;42.658;23.374;2023-02-28T05:28:26;95162.19;;;11.29;60.42
27958;BME280;15295;42.658;23.374;2023-02-28T05:30:51;95122.66;;;11.09;60.29
27958;BME280;15295;42.658;23.374;2023-02-28T05:33:20;95101.50;;;10.95;60.19
27958;BME280;15295;42.658;23.374;2023-02-28T05:35:45;95133.22;;;11.21;60.24
27958;BME280;15295;42.658;23.374;2023-02-28T05:38:16;95161.44;;;11.42;60.07
27958;BME280;15295;42.658;23.374;2023-02-28T05:43:27;95144.59;;;11.30;60.03
27958;BME280;15295;42.658;23.374;2023-02-28T05:46:57;95170.41;;;11.46;60.12
27958;BME280;15295;42.658;23.374;2023-02-28T05:49:23;95105.84;;;11.10;60.11
27958;BME280;15295;42.658;23.374;2023-02-28T05:51:51;95086.31;;;11.05;59.99
27958;BME280;15295;42.658;23.374;2023-02-28T05:54:32;95114.09;;;11.21;59.86
27958;BME280;15295;42.658;23.374;2023-02-28T05:57:05;95167.31;;;11.48;59.59
27958;BME280;15295;42.658;23.374;2023-02-28T06:00:12;95152.41;;;11.42;59.92
27958;BME280;15295;42.658;23.374;2023-02-28T06:02:51;95152.84;;;11.47;60.36
27958;BME280;15295;42.658;23.374;2023-02-28T06:05:22;95142.66;;;11.41;60.09
27958;BME280;15295;42.658;23.374;2023-02-28T06:07:50;95137.19;;;11.41;59.83
27958;BME280;15295;42.658;23.374;2023-02-28T06:10:25;95118.41;;;11.36;59.77
27958;BME280;15295;42.658;23.374;2023-02-28T06:13:16;95187.31;;;11.87;59.84
27958;BME280;15295;42.658;23.374;2023-02-28T06:15:44;95146.59;;;11.64;59.64
27958;BME280;15295;42.658;23.374;2023-02-28T06:18:11;95136.06;;;11.63;59.68
27958;BME280;15295;42.658;23.374;2023-02-28T06:20:44;95149.00;;;11.70;59.36
27958;BME280;15295;42.658;23.374;2023-02-28T06:23:18;95117.25;;;11.47;59.17
27958;BME280;15295;42.658;23.374;2023-02-28T06:25:47;95118.06;;;11.48;59.18
27958;BME280;15295;42.658;23.374;2023-02-28T06:28:17;95127.03;;;11.55;59.00
27958;BME280;15295;42.658;23.374;2023-02-28T06:30:54;95141.13;;;11.57;59.22
27958;BME280;15295;42.658;23.374;2023-02-28T06:33:20;95137.19;;;11.51;59.13
27958;BME280;15295;42.658;23.374;2023-02-28T06:35:52;95121.16;;;11.43;59.16
27958;BME280;15295;42.658;23.374;2023-02-28T06:38:18;95184.19;;;11.85;59.29
27958;BME280;15295;42.658;23.374;2023-02-28T06:40:56;95118.44;;;11.43;59.17
27958;BME280;15295;42.658;23.374;2023-02-28T06:43:25;95161.50;;;11.67;59.32
27958;BME280;15295;42.658;23.374;2023-02-28T06:45:55;95119.22;;;11.47;59.32
27958;BME280;15295;42.658;23.374;2023-02-28T06:48:21;95129.38;;;11.53;59.11
27958;BME280;15295;42.658;23.374;2023-02-28T06:50:48;95151.34;;;11.78;59.01
27958;BME280;15295;42.658;23.374;2023-02-28T06:53:20;95210.06;;;12.12;58.91
27958;BME280;15295;42.658;23.374;2023-02-28T06:55:47;95145.06;;;11.71;58.73
27958;BME280;15295;42.658;23.374;2023-02-28T06:58:15;95126.25;;;11.55;58.58
27958;BME280;15295;42.658;23.374;2023-02-28T07:00:51;95154.06;;;11.75;58.83
27958;BME280;15295;42.658;23.374;2023-02-28T07:03:25;95215.53;;;12.12;58.40
27958;BME280;15295;42.658;23.374;2023-02-28T07:05:52;95165.41;;;11.77;58.33
27958;BME280;15295;42.658;23.374;2023-02-28T07:08:25;95184.22;;;11.89;58.57
27958;BME280;15295;42.658;23.374;2023-02-28T07:10:55;95162.69;;;11.80;58.50
27958;BME280;15295;42.658;23.374;2023-02-28T07:13:24;95136.44;;;11.58;58.51
27958;BME280;15295;42.658;23.374;2023-02-28T07:16:03;95184.22;;;11.78;58.58
27958;BME280;15295;42.658;23.374;2023-02-28T07:18:30;95158.72;;;11.60;58.52
27958;BME280;15295;42.658;23.374;2023-02-28T07:20:57;95149.72;;;11.59;58.58
27958;BME280;15295;42.658;23.374;2023-02-28T07:23:28;95211.59;;;11.92;58.72
27958;BME280;15295;42.658;23.374;2023-02-28T07:26:17;95140.72;;;11.55;58.92
27958;BME280;15295;42.658;23.374;2023-02-28T07:28:53;95165.41;;;11.73;59.09
27958;BME280;15295;42.658;23.374;2023-02-28T07:31:42;95206.53;;;12.01;59.31
27958;BME280;15295;42.658;23.374;2023-02-28T07:34:07;95201.41;;;11.96;59.80
27958;BME280;15295;42.658;23.374;2023-02-28T07:36:38;95153.66;;;11.76;59.65
27958;BME280;15295;42.658;23.374;2023-02-28T07:39:06;95204.56;;;12.12;59.79
27958;BME280;15295;42.658;23.374;2023-02-28T07:41:35;95179.50;;;12.10;59.88
27958;BME280;15295;42.658;23.374;2023-02-28T07:44:04;95204.94;;;12.35;59.81
27958;BME280;15295;42.658;23.374;2023-02-28T07:46:31;95174.03;;;12.24;59.83
27958;BME280;15295;42.658;23.374;2023-02-28T07:49:02;95178.28;;;12.36;59.77
27958;BME280;15295;42.658;23.374;2023-02-28T07:51:29;95150.13;;;12.32;59.47
27958;BME280;15295;42.658;23.374;2023-02-28T07:53:54;95181.00;;;12.61;59.18
27958;BME280;15295;42.658;23.374;2023-02-28T07:56:23;95184.50;;;12.72;59.90
27958;BME280;15295;42.658;23.374;2023-02-28T07:58:49;95193.47;;;12.86;59.59
27958;BME280;15295;42.658;23.374;2023-02-28T08:01:14;95192.69;;;12.93;59.47
27958;BME280;15295;42.658;23.374;2023-02-28T08:03:40;95137.13;;;12.64;59.20
27958;BME280;15295;42.658;23.374;2023-02-28T08:06:07;95176.63;;;12.91;59.12
27958;BME280;15295;42.658;23.374;2023-02-28T08:08:34;95160.13;;;12.95;59.01
27958;BME280;15295;42.658;23.374;2023-02-28T08:11:01;95194.88;;;13.33;58.91
27958;BME280;15295;42.658;23.374;2023-02-28T08:13:27;95205.84;;;13.40;58.85
27958;BME280;15295;42.658;23.374;2023-02-28T08:15:55;95133.06;;;13.04;59.16
27958;BME280;15295;42.658;23.374;2023-02-28T08:18:22;95178.44;;;13.26;59.72
27958;BME280;15295;42.658;23.374;2023-02-28T08:20:48;95185.03;;;13.43;60.31
27958;BME280;15295;42.658;23.374;2023-02-28T08:23:13;95137.31;;;13.23;60.23
27958;BME280;15295;42.658;23.374;2023-02-28T08:25:40;95147.81;;;13.38;60.26
27958;BME280;15295;42.658;23.374;2023-02-28T08:28:06;95155.94;;;13.52;59.83
27958;BME280;15295;42.658;23.374;2023-02-28T08:30:32;95195.69;;;13.96;59.67
27958;BME280;15295;42.658;23.374;2023-02-28T08:32:57;95187.47;;;13.92;59.07
27958;BME280;15295;42.658;23.374;2023-02-28T08:35:23;95202.59;;;14.18;58.71
27958;BME280;15295;42.658;23.374;2023-02-28T08:37:49;95203.09;;;14.02;58.81
27958;BME280;15295;42.658;23.374;2023-02-28T08:40:16;95188.94;;;14.04;58.68
27958;BME280;15295;42.658;23.374;2023-02-28T08:42:47;95195.94;;;14.15;58.58
27958;BME280;15295;42.658;23.374;2023-02-28T08:45:14;95204.81;;;14.37;58.50
27958;BME280;15295;42.658;23.374;2023-02-28T08:47:40;95206.53;;;14.61;58.42
27958;BME280;15295;42.658;23.374;2023-02-28T08:50:06;95162.69;;;14.47;57.87
27958;BME280;15295;42.658;23.374;2023-02-28T08:52:32;95160.63;;;14.54;57.27
27958;BME280;15295;42.658;23.374;2023-02-28T08:54:58;95205.56;;;14.82;57.19
27958;BME280;15295;42.658;23.374;2023-02-28T08:57:24;95178.75;;;14.89;56.85
27958;BME280;15295;42.658;23.374;2023-02-28T08:59:52;95155.38;;;14.71;55.95
27958;BME280;15295;42.658;23.374;2023-02-28T09:02:17;95141.94;;;14.76;55.83
27958;BME280;15295;42.658;23.374;2023-02-28T09:04:46;95207.41;;;15.29;55.68
27958;BME280;15295;42.658;23.374;2023-02-28T09:07:44;95216.41;;;15.33;55.11
27958;BME280;15295;42.658;23.374;2023-02-28T09:10:34;95194.72;;;15.01;55.02
27958;BME280;15295;42.658;23.374;2023-02-28T09:16:17;95206.50;;;15.35;55.03
27958;BME280;15295;42.658;23.374;2023-02-28T09:18:48;95195.91;;;15.34;55.13
27958;BME280;15295;42.658;23.374;2023-02-28T09:21:18;95205.69;;;15.38;54.78
27958;BME280;15295;42.658;23.374;2023-02-28T09:23:47;95160.63;;;15.25;55.03
27958;BME280;15295;42.658;23.374;2023-02-28T09:26:24;95193.31;;;15.54;54.59
27958;BME280;15295;42.658;23.374;2023-02-28T09:29:00;95180.00;;;15.49;54.02
27958;BME280;15295;42.658;23.374;2023-02-28T09:31:28;95189.50;;;15.74;53.83
27958;BME280;15295;42.658;23.374;2023-02-28T09:33:56;95191.59;;;15.63;53.13
27958;BME280;15295;42.658;23.374;2023-02-28T09:36:26;95167.38;;;15.51;52.88
27958;BME280;15295;42.658;23.374;2023-02-28T09:38:58;95202.13;;;15.72;53.16
27958;BME280;15295;42.658;23.374;2023-02-28T09:41:36;95197.63;;;15.55;52.80
27958;BME280;15295;42.658;23.374;2023-02-28T09:44:07;95153.34;;;15.08;53.42
27958;BME280;15295;42.658;23.374;2023-02-28T09:46:43;95166.63;;;15.17;53.65
27958;BME280;15295;42.658;23.374;2023-02-28T09:49:18;95179.81;;;15.32;53.58
27958;BME280;15295;42.658;23.374;2023-02-28T09:54:19;95138.00;;;15.41;54.54
27958;BME280;15295;42.658;23.374;2023-02-28T09:57:10;95186.22;;;15.83;51.99
27958;BME280;15295;42.658;23.374;2023-02-28T09:59:44;95202.34;;;15.84;51.81
27958;BME280;15295;42.658;23.374;2023-02-28T10:04:54;95199.44;;;15.95;52.51
27958;BME280;15295;42.658;23.374;2023-02-28T10:07:50;95189.16;;;16.22;52.07
27958;BME280;15295;42.658;23.374;2023-02-28T10:10:29;95169.31;;;16.07;50.41
27958;BME280;15295;42.658;23.374;2023-02-28T10:13:01;95173.78;;;15.98;51.18
27958;BME280;15295;42.658;23.374;2023-02-28T10:15:30;95160.72;;;16.02;50.89
27958;BME280;15295;42.658;23.374;2023-02-28T10:18:04;95195.31;;;16.33;50.56
27958;BME280;15295;42.658;23.374;2023-02-28T10:20:37;95168.28;;;16.21;50.54
27958;BME280;15295;42.658;23.374;2023-02-28T10:23:17;95145.59;;;16.13;50.52
27958;BME280;15295;42.658;23.374;2023-02-28T10:25:53;95187.66;;;16.41;50.36
27958;BME280;15295;42.658;23.374;2023-02-28T10:28:24;95136.06;;;16.18;50.18
27958;BME280;15295;42.658;23.374;2023-02-28T10:30:52;95142.63;;;16.47;49.83
27958;BME280;15295;42.658;23.374;2023-02-28T10:33:31;95170.94;;;16.74;49.38
27958;BME280;15295;42.658;23.374;2023-02-28T10:36:01;95127.50;;;16.78;49.11
27958;BME280;15295;42.658;23.374;2023-02-28T10:38:37;95125.66;;;16.91;47.74
27958;BME280;15295;42.658;23.374;2023-02-28T10:43:34;95086.50;;;16.96;47.35
27958;BME280;15295;42.658;23.374;2023-02-28T10:46:09;95096.53;;;17.26;46.92
27958;BME280;15295;42.658;23.374;2023-02-28T10:48:43;95149.19;;;17.75;46.29
27958;BME280;15295;42.658;23.374;2023-02-28T10:51:18;95115.63;;;17.56;46.20
27958;BME280;15295;42.658;23.374;2023-02-28T10:53:52;95145.19;;;17.59;46.09
27958;BME280;15295;42.658;23.374;2023-02-28T10:56:21;95121.72;;;17.48;45.64
27958;BME280;15295;42.658;23.374;2023-02-28T11:04:00;95135.56;;;17.28;46.42
27958;BME280;15295;42.658;23.374;2023-02-28T11:06:29;95097.63;;;16.93;46.53
27958;BME280;15295;42.658;23.374;2023-02-28T11:08:57;95112.00;;;16.65;47.34
27958;BME280;15295;42.658;23.374;2023-02-28T11:11:25;95120.84;;;16.76;47.66
27958;BME280;15295;42.658;23.374;2023-02-28T11:13:54;95116.94;;;16.73;47.74
27958;BME280;15295;42.658;23.374;2023-02-28T11:16:21;95107.66;;;16.64;48.31
27958;BME280;15295;42.658;23.374;2023-02-28T11:18:59;95108.69;;;16.73;47.58
27958;BME280;15295;42.658;23.374;2023-02-28T11:21:57;95112.28;;;16.70;48.04
27958;BME280;15295;42.658;23.374;2023-02-28T11:24:51;95105.44;;;16.78;47.80
27958;BME280;15295;42.658;23.374;2023-02-28T11:31:17;95109.84;;;16.72;47.97
27958;BME280;15295;42.658;23.374;2023-02-28T11:36:58;95102.13;;;16.44;48.46
27958;BME280;15295;42.658;23.374;2023-02-28T11:39:45;95104.88;;;16.44;49.12
27958;BME280;15295;42.658;23.374;2023-02-28T11:45:42;95104.75;;;16.51;48.99
27958;BME280;15295;42.658;23.374;2023-02-28T11:48:18;95098.03;;;16.52;49.15
27958;BME280;15295;42.658;23.374;2023-02-28T11:53:52;95099.88;;;16.59;48.71
27958;BME280;15295;42.658;23.374;2023-02-28T11:56:44;95088.16;;;16.55;48.43
27958;BME280;15295;42.658;23.374;2023-02-28T11:59:41;95096.81;;;16.53;48.40
27958;BME280;15295;42.658;23.374;2023-02-28T12:05:33;95095.16;;;16.59;48.67
27958;BME280;15295;42.658;23.374;2023-02-28T12:08:44;95099.94;;;16.55;48.95
27958;BME280;15295;42.658;23.374;2023-02-28T12:14:19;95089.06;;;16.45;48.24
27958;BME280;15295;42.658;23.374;2023-02-28T12:28:24;95082.44;;;16.42;49.18
27958;BME280;15295;42.658;23.374;2023-02-28T12:31:09;95062.03;;;16.16;48.83
27958;BME280;15295;42.658;23.374;2023-02-28T12:33:44;95054.41;;;16.24;48.72
27958;BME280;15295;42.658;23.374;2023-02-28T12:36:14;95085.78;;;16.53;48.22
27958;BME280;15295;42.658;23.374;2023-02-28T12:39:20;95065.84;;;16.23;48.16
27958;BME280;15295;42.658;23.374;2023-02-28T12:42:11;95065.06;;;16.22;48.19
27958;BME280;15295;42.658;23.374;2023-02-28T12:48:13;95089.25;;;16.57;47.88
27958;BME280;15295;42.658;23.374;2023-02-28T12:51:25;95082.91;;;16.60;47.63
27958;BME280;15295;42.658;23.374;2023-02-28T12:57:22;95023.94;;;16.31;47.56
27958;BME280;15295;42.658;23.374;2023-02-28T13:00:08;95053.75;;;16.36;47.36
27958;BME280;15295;42.658;23.374;2023-02-28T13:09:30;95077.47;;;16.76;47.25
27958;BME280;15295;42.658;23.374;2023-02-28T13:11:56;95044.88;;;16.48;47.09
27958;BME280;15295;42.658;23.374;2023-02-28T13:14:35;95034.88;;;16.35;47.43
27958;BME280;15295;42.658;23.374;2023-02-28T13:17:12;95072.56;;;16.64;47.37
27958;BME280;15295;42.658;23.374;2023-02-28T13:20:13;95078.00;;;16.48;47.84
27958;BME280;15295;42.658;23.374;2023-02-28T13:22:44;95073.00;;;16.63;47.60
27958;BME280;15295;42.658;23.374;2023-02-28T13:27:58;95061.06;;;16.69;47.05
27958;BME280;15295;42.658;23.374;2023-02-28T13:36:30;95038.44;;;15.92;47.82
27958;BME280;15295;42.658;23.374;2023-02-28T13:39:46;95072.28;;;16.16;47.51
27958;BME280;15295;42.658;23.374;2023-02-28T13:43:02;95052.84;;;16.00;48.34
27958;BME280;15295;42.658;23.374;2023-02-28T13:45:29;95056.66;;;15.86;48.27
27958;BME280;15295;42.658;23.374;2023-02-28T13:48:15;95055.69;;;15.73;49.00
27958;BME280;15295;42.658;23.374;2023-02-28T13:50:44;95043.41;;;16.01;48.31
27958;BME280;15295;42.658;23.374;2023-02-28T14:07:21;95060.09;;;15.67;49.31
27958;BME280;15295;42.658;23.374;2023-02-28T14:10:19;95067.16;;;15.41;49.89
27958;BME280;15295;42.658;23.374;2023-02-28T14:12:58;95069.59;;;15.36;50.31
27958;BME280;15295;42.658;23.374;2023-02-28T14:18:49;95050.03;;;15.30;50.42
27958;BME280;15295;42.658;23.374;2023-02-28T14:36:08;95076.84;;;15.23;51.14
27958;BME280;15295;42.658;23.374;2023-02-28T14:38:43;95076.69;;;15.07;51.33
27958;BME280;15295;42.658;23.374;2023-02-28T14:41:37;95066.19;;;14.68;52.21
27958;BME280;15295;42.658;23.374;2023-02-28T14:49:34;95050.84;;;14.67;52.51
27958;BME280;15295;42.658;23.374;2023-02-28T14:52:27;95072.00;;;14.74;52.58
27958;BME280;15295;42.658;23.374;2023-02-28T14:54:58;95041.78;;;14.70;52.16
27958;BME280;15295;42.658;23.374;2023-02-28T14:57:30;95051.50;;;14.78;52.02
27958;BME280;15295;42.658;23.374;2023-02-28T15:05:28;95068.94;;;14.68;52.78
27958;BME280;15295;42.658;23.374;2023-02-28T15:08:14;95065.56;;;14.87;52.39
27958;BME280;15295;42.658;23.374;2023-02-28T15:11:11;95054.09;;;14.92;52.09
27958;BME280;15295;42.658;23.374;2023-02-28T15:13:52;95049.81;;;14.88;51.82
27958;BME280;15295;42.658;23.374;2023-02-28T15:16:41;95057.22;;;14.94;51.35
27958;BME280;15295;42.658;23.374;2023-02-28T15:19:23;95049.03;;;14.87;51.21
27958;BME280;15295;42.658;23.374;2023-02-28T15:22:14;95065.41;;;14.98;51.28
27958;BME280;15295;42.658;23.374;2023-02-28T15:24:53;95053.69;;;14.94;51.03
27958;BME280;15295;42.658;23.374;2023-02-28T15:27:29;95032.75;;;14.69;51.20
27958;BME280;15295;42.658;23.374;2023-02-28T15:29:59;95063.34;;;14.75;51.38
27958;BME280;15295;42.658;23.374;2023-02-28T15:32:28;95074.63;;;14.84;51.79
27958;BME280;15295;42.658;23.374;2023-02-28T15:34:54;95062.69;;;14.64;51.92
27958;BME280;15295;42.658;23.374;2023-02-28T15:37:28;95072.91;;;14.63;52.38
27958;BME280;15295;42.658;23.374;2023-02-28T15:39:56;95078.59;;;14.49;52.75
27958;BME280;15295;42.658;23.374;2023-02-28T15:42:29;95077.00;;;14.52;52.59
27958;BME280;15295;42.658;23.374;2023-02-28T15:45:01;95030.03;;;13.95;53.36
27958;BME280;15295;42.658;23.374;2023-02-28T15:47:28;95052.97;;;14.19;53.26
27958;BME280;15295;42.658;23.374;2023-02-28T15:50:27;95073.22;;;14.39;53.18
27958;BME280;15295;42.658;23.374;2023-02-28T15:53:04;95078.41;;;14.30;53.30
27958;BME280;15295;42.658;23.374;2023-02-28T15:55:42;95078.06;;;14.21;53.27
27958;BME280;15295;42.658;23.374;2023-02-28T15:58:16;95045.63;;;14.05;53.50
27958;BME280;15295;42.658;23.374;2023-02-28T16:04:04;95067.19;;;14.10;53.90
27958;BME280;15295;42.658;23.374;2023-02-28T16:06:44;95056.44;;;13.82;54.47
27958;BME280;15295;42.658;23.374;2023-02-28T16:09:19;95045.13;;;13.76;54.55
27958;BME280;15295;42.658;23.374;2023-02-28T16:12:02;95096.03;;;13.91;54.94
27958;BME280;15295;42.658;23.374;2023-02-28T16:14:29;95086.81;;;13.64;55.65
27958;BME280;15295;42.658;23.374;2023-02-28T16:17:19;95043.97;;;13.23;55.87
27958;BME280;15295;42.658;23.374;2023-02-28T16:19:46;95106.03;;;13.64;55.44
27958;BME280;15295;42.658;23.374;2023-02-28T16:22:30;95119.47;;;13.55;55.79
27958;BME280;15295;42.658;23.374;2023-02-28T16:24:57;95130.47;;;13.48;56.03
27958;BME280;15295;42.658;23.374;2023-02-28T16:27:31;95137.94;;;13.48;55.76
27958;BME280;15295;42.658;23.374;2023-02-28T16:30:00;95138.69;;;13.55;55.55